createdAt,value
2019-03-28T00:00:53.438Z,25.85
2019-03-28T00:02:06.660Z,26.07
2019-03-28T00:03:19.872Z,26.82
2019-03-28T00:04:33.107Z,21.93
2019-03-28T00:05:46.406Z,28.50
2019-03-28T00:06:59.644Z,25.12
2019-03-28T00:08:12.869Z,26.15
2019-03-28T00:09:26.115Z,28.32
2019-03-28T00:10:39.329Z,23.65
2019-03-28T00:11:52.569Z,22.15
2019-03-28T00:13:05.825Z,27.27
2019-03-28T00:14:19.768Z,24.87
2019-03-28T00:15:33.238Z,26.97
2019-03-28T00:16:49.243Z,25.35
2019-03-28T00:18:02.638Z,22.45
2019-03-28T00:19:15.906Z,24.65
2019-03-28T00:20:29.140Z,23.83
2019-03-28T00:21:42.377Z,26.70
2019-03-28T00:22:59.962Z,25.72
2019-03-28T00:24:20.785Z,22.22
2019-03-28T00:25:34.022Z,20.20
2019-03-28T00:26:47.241Z,21.85
2019-03-28T00:28:00.477Z,22.80
2019-03-28T00:29:13.705Z,20.95
2019-03-28T00:30:26.949Z,23.80
2019-03-28T00:31:40.166Z,20.60
2019-03-28T00:32:53.404Z,22.58
2019-03-28T00:34:06.649Z,28.27
2019-03-28T00:35:19.879Z,23.67
2019-03-28T00:36:33.137Z,26.93
2019-03-28T00:37:46.374Z,23.95
2019-03-28T00:38:59.600Z,24.65
2019-03-28T00:40:12.850Z,21.93
2019-03-28T00:41:26.069Z,27.62
2019-03-28T00:42:39.302Z,18.35
2019-03-28T00:43:52.538Z,25.72
2019-03-28T00:45:06.909Z,23.20
2019-03-28T00:46:20.166Z,21.23
2019-03-28T00:47:33.434Z,20.45
2019-03-28T00:48:46.657Z,27.07
2019-03-28T00:49:59.884Z,23.55
2019-03-28T00:51:13.121Z,23.22
2019-03-28T00:52:27.078Z,23.42
2019-03-28T00:53:40.300Z,22.35
2019-03-28T00:54:53.763Z,22.15
2019-03-28T00:56:09.344Z,24.00
2019-03-28T00:57:22.566Z,25.00
2019-03-28T00:58:35.789Z,24.85
2019-03-28T00:59:49.286Z,25.43
2019-03-28T01:01:02.639Z,22.95
2019-03-28T01:02:15.876Z,25.65
2019-03-28T01:03:29.101Z,24.63
2019-03-28T01:04:42.332Z,19.95
2019-03-28T01:05:55.557Z,19.92
2019-03-28T01:07:08.845Z,22.45
2019-03-28T01:08:22.080Z,20.30
2019-03-28T01:09:35.333Z,21.05
2019-03-28T01:10:48.571Z,23.60
2019-03-28T01:12:02.252Z,22.70
2019-03-28T01:13:15.630Z,22.05
2019-03-28T01:14:28.850Z,23.07
2019-03-28T01:15:42.079Z,23.02
2019-03-28T01:16:55.578Z,22.73
2019-03-28T01:18:08.810Z,22.95
2019-03-28T01:19:22.045Z,21.80
2019-03-28T01:20:35.328Z,21.70
2019-03-28T01:21:48.560Z,22.62
2019-03-28T01:23:01.791Z,21.77
2019-03-28T01:24:15.022Z,26.30
2019-03-28T01:25:28.274Z,26.20
2019-03-28T01:26:41.514Z,22.98
2019-03-28T01:27:56.745Z,20.90
2019-03-28T01:29:12.063Z,21.73
2019-03-28T01:30:24.925Z,24.90
2019-03-28T01:31:38.161Z,24.50
2019-03-28T01:32:51.384Z,20.27
2019-03-28T01:34:04.622Z,23.35
2019-03-28T01:35:17.843Z,21.80
2019-03-28T01:36:31.081Z,25.32
2019-03-28T01:37:44.301Z,21.17
2019-03-28T01:38:58.622Z,23.73
2019-03-28T01:40:11.850Z,22.40
2019-03-28T01:41:25.081Z,22.90
2019-03-28T01:42:38.321Z,24.27
2019-03-28T01:43:52.275Z,21.37
2019-03-28T01:45:06.337Z,24.57
2019-03-28T01:46:19.564Z,22.50
2019-03-28T01:47:32.794Z,25.20
2019-03-28T01:48:46.026Z,25.72
2019-03-28T01:49:59.259Z,22.70
2019-03-28T01:51:12.489Z,22.75
2019-03-28T01:52:25.714Z,24.57
2019-03-28T01:53:38.945Z,21.57
2019-03-28T01:54:53.798Z,24.18
2019-03-28T01:56:07.037Z,23.73
2019-03-28T01:57:20.265Z,22.25
2019-03-28T01:58:33.489Z,22.80
2019-03-28T01:59:46.729Z,22.93
2019-03-28T02:01:02.786Z,25.75
2019-03-28T02:02:14.909Z,20.50
2019-03-28T02:03:28.140Z,24.75
2019-03-28T02:04:41.382Z,22.62
2019-03-28T02:05:54.613Z,26.30
2019-03-28T02:07:08.917Z,23.20
2019-03-28T02:08:24.755Z,23.83
2019-03-28T02:09:37.149Z,22.60
2019-03-28T02:10:50.405Z,24.25
2019-03-28T02:12:03.642Z,23.25
2019-03-28T02:13:16.869Z,25.15
2019-03-28T02:14:30.088Z,25.70
2019-03-28T02:15:43.316Z,26.20
2019-03-28T02:16:56.557Z,30.27
2019-03-28T02:18:09.826Z,24.43
2019-03-28T02:19:23.103Z,25.82
2019-03-28T02:20:36.388Z,25.37
2019-03-28T02:21:49.666Z,23.38
2019-03-28T02:23:02.906Z,25.12
2019-03-28T02:24:16.133Z,26.25
2019-03-28T02:25:29.829Z,25.48
2019-03-28T02:26:43.065Z,25.52
2019-03-28T02:27:56.289Z,32.03
2019-03-28T02:29:09.513Z,25.50
2019-03-28T02:30:31.574Z,25.95
2019-03-28T02:31:44.821Z,25.90
2019-03-28T02:32:58.058Z,28.07
2019-03-28T02:34:11.284Z,24.10
2019-03-28T02:35:24.505Z,30.55
2019-03-28T02:36:37.738Z,25.82
2019-03-28T02:37:50.974Z,26.25
2019-03-28T02:39:05.074Z,22.50
2019-03-28T02:40:18.772Z,30.30
2019-03-28T02:41:32.003Z,23.55
2019-03-28T02:42:45.233Z,28.45
2019-03-28T02:43:58.459Z,27.27
2019-03-28T02:45:11.698Z,22.10
2019-03-28T02:46:24.925Z,25.35
2019-03-28T02:47:39.081Z,25.70
2019-03-28T02:48:53.730Z,27.02
2019-03-28T02:50:07.298Z,28.60
2019-03-28T02:51:20.531Z,25.55
2019-03-28T02:52:33.760Z,27.58
2019-03-28T02:53:47.000Z,26.00
2019-03-28T02:55:00.537Z,28.67
2019-03-28T02:56:13.851Z,24.20
2019-03-28T02:57:40.037Z,23.55
2019-03-28T02:58:42.063Z,24.70
2019-03-28T02:59:55.332Z,24.57
2019-03-28T03:01:08.565Z,27.13
2019-03-28T03:02:21.797Z,26.00
2019-03-28T03:03:35.030Z,28.73
2019-03-28T03:04:48.267Z,25.77
2019-03-28T03:06:01.481Z,23.77
2019-03-28T03:07:14.723Z,29.80
2019-03-28T03:08:27.946Z,24.32
2019-03-28T03:09:41.182Z,23.30
2019-03-28T03:10:54.414Z,30.10
2019-03-28T03:12:07.643Z,27.95
2019-03-28T03:13:20.868Z,29.98
2019-03-28T03:14:34.100Z,23.57
2019-03-28T03:15:47.318Z,25.25
2019-03-28T03:17:00.550Z,23.00
2019-03-28T03:18:13.769Z,23.52
2019-03-28T03:19:27.005Z,25.97
2019-03-28T03:20:40.240Z,25.45
2019-03-28T03:21:53.475Z,27.42
2019-03-28T03:23:06.717Z,25.35
2019-03-28T03:24:19.950Z,25.97
2019-03-28T03:25:33.270Z,25.32
2019-03-28T03:26:46.511Z,26.85
2019-03-28T03:27:59.743Z,32.17
2019-03-28T03:29:12.963Z,25.37
2019-03-28T03:30:26.201Z,26.52
2019-03-28T03:31:39.419Z,25.08
2019-03-28T03:32:52.646Z,24.77
2019-03-28T03:34:05.871Z,28.00
2019-03-28T03:35:19.094Z,26.90
2019-03-28T03:36:32.321Z,26.35
2019-03-28T03:37:45.568Z,28.85
2019-03-28T03:38:58.801Z,28.60
2019-03-28T03:40:13.648Z,25.05
2019-03-28T03:41:26.894Z,23.22
2019-03-28T03:42:40.296Z,26.42
2019-03-28T03:43:53.527Z,25.30
2019-03-28T03:45:09.039Z,26.57
2019-03-28T03:46:22.387Z,29.32
2019-03-28T03:47:35.622Z,26.70
2019-03-28T03:48:48.862Z,24.98
2019-03-28T03:50:02.093Z,28.02
2019-03-28T03:51:15.305Z,29.45
2019-03-28T03:52:28.539Z,27.00
2019-03-28T03:53:41.771Z,28.57
2019-03-28T03:54:55.028Z,26.73
2019-03-28T03:56:08.295Z,26.52
2019-03-28T03:57:21.522Z,27.42
2019-03-28T03:58:34.770Z,29.02
2019-03-28T03:59:47.995Z,31.60
2019-03-28T04:01:01.226Z,26.45
2019-03-28T04:02:14.450Z,27.42
2019-03-28T04:03:27.678Z,29.23
2019-03-28T04:04:40.905Z,25.65
2019-03-28T04:05:54.147Z,29.12
2019-03-28T04:07:07.371Z,27.30
2019-03-28T04:08:20.607Z,23.40
2019-03-28T04:09:33.830Z,26.02
2019-03-28T04:10:47.071Z,27.17
2019-03-28T04:12:00.350Z,27.45
2019-03-28T04:13:13.602Z,24.02
2019-03-28T04:14:26.830Z,26.87
2019-03-28T04:15:41.053Z,26.55
2019-03-28T04:16:54.318Z,25.30
2019-03-28T04:18:08.719Z,23.80
2019-03-28T04:19:21.950Z,29.42
2019-03-28T04:20:35.168Z,27.55
2019-03-28T04:21:48.406Z,30.05
2019-03-28T04:23:01.643Z,29.57
2019-03-28T04:24:14.886Z,30.23
2019-03-28T04:25:28.111Z,26.60
2019-03-28T04:26:41.337Z,27.60
2019-03-28T04:27:54.603Z,27.30
2019-03-28T04:29:07.834Z,25.72
2019-03-28T04:30:21.075Z,27.67
2019-03-28T04:31:34.304Z,24.00
2019-03-28T04:32:47.528Z,26.73
2019-03-28T04:34:06.936Z,27.82
2019-03-28T04:35:15.718Z,27.60
2019-03-28T04:36:28.947Z,29.32
2019-03-28T04:37:42.174Z,28.05
2019-03-28T04:38:55.420Z,28.47
2019-03-28T04:40:08.955Z,27.52
2019-03-28T04:41:22.256Z,27.65
2019-03-28T04:42:35.482Z,29.85
2019-03-28T04:43:48.718Z,29.57
2019-03-28T04:45:01.941Z,30.60
2019-03-28T04:46:15.172Z,28.95
2019-03-28T04:47:28.401Z,25.48
2019-03-28T04:48:41.657Z,30.23
2019-03-28T04:49:54.865Z,33.58
2019-03-28T04:51:08.113Z,28.35
2019-03-28T04:52:21.341Z,28.20
2019-03-28T04:53:34.571Z,33.88
2019-03-28T04:54:47.793Z,30.52
2019-03-28T04:56:01.026Z,29.67
2019-03-28T04:57:14.268Z,29.37
2019-03-28T04:58:27.484Z,31.62
2019-03-28T04:59:41.377Z,29.48
2019-03-28T05:00:54.674Z,30.23
2019-03-28T05:02:07.892Z,30.92
2019-03-28T05:03:21.118Z,29.42
2019-03-28T05:04:34.359Z,31.33
2019-03-28T05:05:47.573Z,29.60
2019-03-28T05:07:00.813Z,27.37
2019-03-28T05:08:14.041Z,35.55
2019-03-28T05:09:27.280Z,30.70
2019-03-28T05:10:41.679Z,30.88
2019-03-28T05:11:55.018Z,34.27
2019-03-28T05:13:08.245Z,31.52
2019-03-28T05:14:21.487Z,32.40
2019-03-28T05:15:34.706Z,31.25
2019-03-28T05:16:48.398Z,29.37
2019-03-28T05:18:01.732Z,30.25
2019-03-28T05:19:16.585Z,28.85
2019-03-28T05:20:29.822Z,31.75
2019-03-28T05:21:43.058Z,28.98
2019-03-28T05:22:56.286Z,31.07
2019-03-28T05:24:09.513Z,32.25
2019-03-28T05:25:22.750Z,34.23
2019-03-28T05:26:35.982Z,38.35
2019-03-28T05:27:49.205Z,35.50
2019-03-28T05:29:02.433Z,32.05
2019-03-28T05:30:15.707Z,36.00
2019-03-28T05:31:28.937Z,35.78
2019-03-28T05:32:42.176Z,36.08
2019-03-28T05:33:55.406Z,36.70
2019-03-28T05:35:08.641Z,34.18
2019-03-28T05:36:21.927Z,38.80
2019-03-28T05:37:35.240Z,40.43
2019-03-28T05:38:48.458Z,30.12
2019-03-28T05:40:01.684Z,41.25
2019-03-28T05:41:17.244Z,38.88
2019-03-28T05:42:29.944Z,34.43
2019-03-28T05:43:45.490Z,33.55
2019-03-28T05:44:58.109Z,33.55
2019-03-28T05:46:14.149Z,31.77
2019-03-28T05:47:27.393Z,36.23
2019-03-28T05:48:41.117Z,32.23
2019-03-28T05:49:54.352Z,29.10
2019-03-28T05:51:08.602Z,32.65
2019-03-28T05:52:21.817Z,34.38
2019-03-28T05:53:35.041Z,29.40
2019-03-28T05:54:51.266Z,41.13
2019-03-28T05:56:04.493Z,33.55
2019-03-28T05:57:19.271Z,34.98
2019-03-28T05:58:36.926Z,31.97
2019-03-28T05:59:52.338Z,32.08
2019-03-28T06:01:06.357Z,32.42
2019-03-28T06:02:19.622Z,32.80
2019-03-28T06:03:32.857Z,35.85
2019-03-28T06:04:47.353Z,32.40
2019-03-28T06:06:04.239Z,33.42
2019-03-28T06:07:17.171Z,35.25
2019-03-28T06:08:30.393Z,33.02
2019-03-28T06:09:44.520Z,35.50
2019-03-28T06:10:57.833Z,31.85
2019-03-28T06:12:11.066Z,31.52
2019-03-28T06:13:24.306Z,29.63
2019-03-28T06:14:37.993Z,35.45
2019-03-28T06:15:51.225Z,33.70
2019-03-28T06:17:04.457Z,34.67
2019-03-28T06:18:17.909Z,30.23
2019-03-28T06:19:33.876Z,32.33
2019-03-28T06:20:47.106Z,30.23
2019-03-28T06:22:00.407Z,32.85
2019-03-28T06:23:13.640Z,33.45
2019-03-28T06:24:26.862Z,33.30
2019-03-28T06:25:40.992Z,32.60
2019-03-28T06:26:54.294Z,32.98
2019-03-28T06:28:07.534Z,32.58
2019-03-28T06:29:23.966Z,30.20
2019-03-28T06:30:35.710Z,34.23
2019-03-28T06:31:55.172Z,37.05
2019-03-28T06:33:04.637Z,30.40
2019-03-28T06:34:17.857Z,36.73
2019-03-28T06:35:31.106Z,31.45
2019-03-28T06:36:44.313Z,30.90
2019-03-28T06:37:58.689Z,31.20
2019-03-28T06:39:12.166Z,31.30
2019-03-28T06:40:25.422Z,32.13
2019-03-28T06:41:38.659Z,31.12
2019-03-28T06:42:51.877Z,31.85
2019-03-28T06:44:05.109Z,37.53
2019-03-28T06:45:18.337Z,30.62
2019-03-28T06:46:31.573Z,36.03
2019-03-28T06:47:44.818Z,34.10
2019-03-28T06:48:58.048Z,36.55
2019-03-28T06:50:11.281Z,33.42
2019-03-28T06:51:27.304Z,31.60
2019-03-28T06:52:41.357Z,31.62
2019-03-28T06:53:57.236Z,33.78
2019-03-28T06:55:10.634Z,33.35
2019-03-28T06:56:25.483Z,29.90
2019-03-28T06:57:38.869Z,32.65
2019-03-28T06:58:52.133Z,35.78
2019-03-28T07:00:07.897Z,32.78
2019-03-28T07:01:21.131Z,34.92
2019-03-28T07:02:34.830Z,32.50
2019-03-28T07:03:48.142Z,34.75
2019-03-28T07:05:01.371Z,32.50
2019-03-28T07:06:14.619Z,37.30
2019-03-28T07:07:28.002Z,35.40
2019-03-28T07:08:41.218Z,34.27
2019-03-28T07:09:54.464Z,32.60
2019-03-28T07:11:07.686Z,35.48
2019-03-28T07:12:20.911Z,34.00
2019-03-28T07:13:34.141Z,32.03
2019-03-28T07:14:47.373Z,32.15
2019-03-28T07:16:00.622Z,29.87
2019-03-28T07:17:13.846Z,34.08
2019-03-28T07:18:27.094Z,30.97
2019-03-28T07:19:40.321Z,28.57
2019-03-28T07:20:53.566Z,30.48
2019-03-28T07:22:06.789Z,31.65
2019-03-28T07:23:20.020Z,32.23
2019-03-28T07:24:33.234Z,32.28
2019-03-28T07:25:46.468Z,32.88
2019-03-28T07:26:59.700Z,31.15
2019-03-28T07:28:12.921Z,31.05
2019-03-28T07:29:26.157Z,32.83
2019-03-28T07:30:39.391Z,29.32
2019-03-28T07:31:52.633Z,31.48
2019-03-28T07:33:05.874Z,30.43
2019-03-28T07:34:19.120Z,31.15
2019-03-28T07:35:32.341Z,35.55
2019-03-28T07:36:46.379Z,30.70
2019-03-28T07:37:59.694Z,32.85
2019-03-28T07:39:13.406Z,37.35
2019-03-28T07:40:26.764Z,30.90
2019-03-28T07:41:40.009Z,30.45
2019-03-28T07:42:53.234Z,33.65
2019-03-28T07:44:06.457Z,27.80
2019-03-28T07:45:19.681Z,27.17
2019-03-28T07:46:32.907Z,31.57
2019-03-28T07:47:47.764Z,25.92
2019-03-28T07:49:00.997Z,30.55
2019-03-28T07:50:14.238Z,35.45
2019-03-28T07:51:27.679Z,35.60
2019-03-28T07:52:41.092Z,30.12
2019-03-28T07:53:54.312Z,29.82
2019-03-28T07:55:07.537Z,27.62
2019-03-28T07:56:20.769Z,29.87
2019-03-28T07:57:33.992Z,31.10
2019-03-28T07:58:47.231Z,25.35
2019-03-28T08:00:04.390Z,25.62
2019-03-28T08:01:17.887Z,27.42
2019-03-28T08:02:30.423Z,22.62
2019-03-28T08:03:43.660Z,24.12
2019-03-28T08:04:56.880Z,26.68
2019-03-28T08:06:12.635Z,26.90
2019-03-28T08:07:25.054Z,24.00
2019-03-28T08:08:39.166Z,24.05
2019-03-28T08:09:55.401Z,24.37
2019-03-28T08:11:08.638Z,23.10
2019-03-28T08:12:23.310Z,25.70
2019-03-28T08:13:39.038Z,20.00
2019-03-28T08:14:52.277Z,25.57
2019-03-28T08:16:05.599Z,25.97
2019-03-28T08:17:18.821Z,24.52
2019-03-28T08:18:32.063Z,24.98
2019-03-28T08:19:45.297Z,22.00
2019-03-28T08:20:58.522Z,24.40
2019-03-28T08:22:11.741Z,23.20
2019-03-28T08:23:24.997Z,20.65
2019-03-28T08:24:38.226Z,21.45
2019-03-28T08:25:51.458Z,21.93
2019-03-28T08:27:04.697Z,19.32
2019-03-28T08:28:17.930Z,24.15
2019-03-28T08:29:31.180Z,21.30
2019-03-28T08:30:45.507Z,22.07
2019-03-28T08:31:59.013Z,20.55
2019-03-28T08:33:12.226Z,21.05
2019-03-28T08:34:25.461Z,17.55
2019-03-28T08:35:38.770Z,19.40
2019-03-28T08:36:52.070Z,24.75
2019-03-28T08:38:09.555Z,30.60
2019-03-28T08:39:21.190Z,20.95
2019-03-28T08:40:39.465Z,26.35
2019-03-28T08:41:51.778Z,19.67
2019-03-28T08:43:05.005Z,19.20
2019-03-28T08:44:18.238Z,26.37
2019-03-28T08:45:34.346Z,24.65
2019-03-28T08:46:47.712Z,20.55
2019-03-28T08:48:00.941Z,23.67
2019-03-28T08:49:14.182Z,20.37
2019-03-28T08:50:27.424Z,19.10
2019-03-28T08:51:40.654Z,20.32
2019-03-28T08:52:53.906Z,19.50
2019-03-28T08:54:07.121Z,20.88
2019-03-28T08:55:20.360Z,19.95
2019-03-28T08:56:33.588Z,19.90
2019-03-28T08:57:46.832Z,16.27
2019-03-28T08:59:00.077Z,16.45
2019-03-28T09:00:16.459Z,26.52
2019-03-28T09:01:28.257Z,14.23
2019-03-28T09:02:41.534Z,17.65
2019-03-28T09:03:54.787Z,15.55
2019-03-28T09:05:08.018Z,20.70
2019-03-28T09:06:21.241Z,15.78
2019-03-28T09:07:34.479Z,17.23
2019-03-28T09:08:47.722Z,25.08
2019-03-28T09:10:00.950Z,17.87
2019-03-28T09:11:14.179Z,18.37
2019-03-28T09:12:27.413Z,20.37
2019-03-28T09:13:40.647Z,20.97
2019-03-28T09:14:53.897Z,21.95
2019-03-28T09:16:07.113Z,22.13
2019-03-28T09:17:23.607Z,22.13
2019-03-28T09:18:35.369Z,15.23
2019-03-28T09:19:48.606Z,15.20
2019-03-28T09:21:01.854Z,14.55
2019-03-28T09:22:15.069Z,13.98
2019-03-28T09:23:28.304Z,12.80
2019-03-28T09:24:41.537Z,16.77
2019-03-28T09:25:55.073Z,15.43
2019-03-28T09:27:08.308Z,16.55
2019-03-28T09:28:21.531Z,13.98
2019-03-28T09:29:34.778Z,12.88
2019-03-28T09:30:49.688Z,13.18
2019-03-28T09:32:03.109Z,12.00
2019-03-28T09:33:16.346Z,13.35
2019-03-28T09:34:29.582Z,13.25
2019-03-28T09:35:43.011Z,15.53
2019-03-28T09:36:56.244Z,16.00
2019-03-28T09:38:09.473Z,12.33
2019-03-28T09:39:24.898Z,15.53
2019-03-28T09:40:37.676Z,14.15
2019-03-28T09:41:52.538Z,12.25
2019-03-28T09:43:05.771Z,11.95
2019-03-28T09:44:18.989Z,14.38
2019-03-28T09:45:32.221Z,11.95
2019-03-28T09:46:45.462Z,15.03
2019-03-28T09:47:58.703Z,13.22
2019-03-28T09:49:11.929Z,14.43
2019-03-28T09:50:25.163Z,13.25
2019-03-28T09:51:38.408Z,15.28
2019-03-28T09:52:51.634Z,15.10
2019-03-28T09:54:05.106Z,12.78
2019-03-28T09:55:19.156Z,15.63
2019-03-28T09:56:32.410Z,16.55
2019-03-28T09:57:45.648Z,13.35
2019-03-28T09:59:00.345Z,11.95
2019-03-28T10:00:15.178Z,12.50
2019-03-28T10:01:29.741Z,11.80
2019-03-28T10:02:44.263Z,13.05
2019-03-28T10:03:57.577Z,15.28
2019-03-28T10:05:10.806Z,15.03
2019-03-28T10:06:24.040Z,13.80
2019-03-28T10:07:38.683Z,11.00
2019-03-28T10:08:52.091Z,10.90
2019-03-28T10:10:08.979Z,13.48
2019-03-28T10:11:20.625Z,12.45
2019-03-28T10:12:34.443Z,11.38
2019-03-28T10:13:47.718Z,14.18
2019-03-28T10:15:02.521Z,13.78
2019-03-28T10:16:15.999Z,10.53
2019-03-28T10:17:29.233Z,14.33
2019-03-28T10:18:43.735Z,13.45
2019-03-28T10:19:56.957Z,15.80
2019-03-28T10:21:10.210Z,15.28
2019-03-28T10:22:23.494Z,17.17
2019-03-28T10:23:39.681Z,15.88
2019-03-28T10:24:51.682Z,14.83
2019-03-28T10:26:04.909Z,14.43
2019-03-28T10:27:19.378Z,16.60
2019-03-28T10:28:33.206Z,14.70
2019-03-28T10:29:46.450Z,15.53
2019-03-28T10:30:59.690Z,13.43
2019-03-28T10:32:12.913Z,15.55
2019-03-28T10:33:26.149Z,12.82
2019-03-28T10:34:39.385Z,12.68
2019-03-28T10:35:52.627Z,12.05
2019-03-28T10:37:05.858Z,15.93
2019-03-28T10:38:19.089Z,16.25
2019-03-28T10:39:32.321Z,14.47
2019-03-28T10:40:45.549Z,17.05
2019-03-28T10:41:58.796Z,16.45
2019-03-28T10:43:12.035Z,15.60
2019-03-28T10:44:25.270Z,20.08
2019-03-28T10:45:38.500Z,15.90
2019-03-28T10:46:51.734Z,12.85
2019-03-28T10:48:04.974Z,14.23
2019-03-28T10:49:18.201Z,17.60
2019-03-28T10:50:41.309Z,17.25
2019-03-28T10:51:46.383Z,13.38
2019-03-28T10:52:59.618Z,15.72
2019-03-28T10:54:20.021Z,17.95
2019-03-28T10:55:28.493Z,14.75
2019-03-28T10:56:51.627Z,14.98
2019-03-28T10:57:56.698Z,17.48
2019-03-28T10:59:22.662Z,13.13
2019-03-28T11:00:25.861Z,11.83
2019-03-28T11:01:49.108Z,11.38
2019-03-28T11:02:54.203Z,10.58
2019-03-28T11:04:07.601Z,10.45
2019-03-28T11:05:20.827Z,11.15
2019-03-28T11:06:34.061Z,11.90
2019-03-28T11:07:47.293Z,11.18
2019-03-28T11:09:00.539Z,11.15
2019-03-28T11:10:13.773Z,11.60
2019-03-28T11:11:27.275Z,12.63
2019-03-28T11:12:40.509Z,13.38
2019-03-28T11:13:55.009Z,11.78
2019-03-28T11:15:08.287Z,12.55
2019-03-28T11:16:21.509Z,13.03
2019-03-28T11:17:34.730Z,12.63
2019-03-28T11:18:47.974Z,12.93
2019-03-28T11:20:01.205Z,11.03
2019-03-28T11:21:14.449Z,11.33
2019-03-28T11:22:27.673Z,12.33
2019-03-28T11:23:40.897Z,9.60
2019-03-28T11:24:54.168Z,13.93
2019-03-28T11:26:07.397Z,13.88
2019-03-28T11:27:20.631Z,12.93
2019-03-28T11:28:34.327Z,10.65
2019-03-28T11:29:47.559Z,9.95
2019-03-28T11:31:00.885Z,11.15
2019-03-28T11:32:14.387Z,11.38
2019-03-28T11:33:28.269Z,11.48
2019-03-28T11:34:41.518Z,11.22
2019-03-28T11:35:54.750Z,10.93
2019-03-28T11:37:14.899Z,11.65
2019-03-28T11:38:23.974Z,10.90
2019-03-28T11:39:37.293Z,11.57
2019-03-28T11:40:50.608Z,11.57
2019-03-28T11:42:03.828Z,11.68
2019-03-28T11:43:19.665Z,12.28
2019-03-28T11:44:33.088Z,13.62
2019-03-28T11:45:46.312Z,12.63
2019-03-28T11:46:59.537Z,14.93
2019-03-28T11:48:12.774Z,14.35
2019-03-28T11:49:27.069Z,17.07
2019-03-28T11:50:40.910Z,14.65
2019-03-28T11:51:54.177Z,13.15
2019-03-28T11:53:07.441Z,13.98
2019-03-28T11:54:20.673Z,16.00
2019-03-28T11:55:33.913Z,13.45
2019-03-28T11:56:47.145Z,13.32
2019-03-28T11:58:00.365Z,11.97
2019-03-28T11:59:13.617Z,12.98
2019-03-28T12:00:26.817Z,13.18
2019-03-28T12:01:40.049Z,15.83
2019-03-28T12:02:53.282Z,11.75
2019-03-28T12:04:06.530Z,12.58
2019-03-28T12:05:19.752Z,13.55
2019-03-28T12:06:32.972Z,14.70
2019-03-28T12:07:46.206Z,14.93
2019-03-28T12:08:59.447Z,15.65
2019-03-28T12:10:13.864Z,14.90
2019-03-28T12:11:27.098Z,14.78
2019-03-28T12:12:40.338Z,13.83
2019-03-28T12:13:53.635Z,12.82
2019-03-28T12:15:07.533Z,13.45
2019-03-28T12:16:20.771Z,12.45
2019-03-28T12:17:34.009Z,11.88
2019-03-28T12:18:47.234Z,12.30
2019-03-28T12:20:00.472Z,14.38
2019-03-28T12:21:13.714Z,13.08
2019-03-28T12:22:26.940Z,14.07
2019-03-28T12:23:40.170Z,12.13
2019-03-28T12:24:53.406Z,12.88
2019-03-28T12:26:06.637Z,11.85
2019-03-28T12:27:19.886Z,13.55
2019-03-28T12:28:33.111Z,11.80
2019-03-28T12:29:46.355Z,14.60
2019-03-28T12:30:59.580Z,13.03
2019-03-28T12:32:14.333Z,13.18
2019-03-28T12:33:27.835Z,14.07
2019-03-28T12:34:41.058Z,15.70
2019-03-28T12:35:54.285Z,15.40
2019-03-28T12:37:07.525Z,14.78
2019-03-28T12:38:20.754Z,14.47
2019-03-28T12:39:33.994Z,19.00
2019-03-28T12:40:47.225Z,17.17
2019-03-28T12:42:01.533Z,15.18
2019-03-28T12:43:14.788Z,15.55
2019-03-28T12:44:28.013Z,17.00
2019-03-28T12:45:41.246Z,13.70
2019-03-28T12:46:54.479Z,16.35
2019-03-28T12:48:08.195Z,13.98
2019-03-28T12:49:21.421Z,15.65
2019-03-28T12:50:34.653Z,16.62
2019-03-28T12:51:47.887Z,11.40
2019-03-28T12:53:01.129Z,12.63
2019-03-28T12:54:14.358Z,11.40
2019-03-28T12:55:27.593Z,14.25
2019-03-28T12:56:40.812Z,14.18
2019-03-28T12:57:55.349Z,13.30
2019-03-28T12:59:09.822Z,12.18
2019-03-28T13:00:33.989Z,12.10
2019-03-28T13:01:47.245Z,12.23
2019-03-28T13:03:00.538Z,14.50
2019-03-28T13:04:13.773Z,16.93
2019-03-28T13:05:27.013Z,13.32
2019-03-28T13:06:40.245Z,11.93
2019-03-28T13:07:54.477Z,12.80
2019-03-28T13:09:09.762Z,11.15
2019-03-28T13:10:23.151Z,11.18
2019-03-28T13:11:36.386Z,11.00
2019-03-28T13:12:49.609Z,12.15
2019-03-28T13:14:02.845Z,14.87
2019-03-28T13:15:16.060Z,11.70
2019-03-28T13:16:29.309Z,11.65
2019-03-28T13:17:42.541Z,12.95
2019-03-28T13:18:55.769Z,10.58
2019-03-28T13:20:09.931Z,12.73
2019-03-28T13:21:23.164Z,9.98
2019-03-28T13:22:36.469Z,12.07
2019-03-28T13:23:49.706Z,10.15
2019-03-28T13:25:02.941Z,9.10
2019-03-28T13:26:16.168Z,10.10
2019-03-28T13:27:29.413Z,12.45
2019-03-28T13:28:42.722Z,16.87
2019-03-28T13:29:55.949Z,11.25
2019-03-28T13:31:09.169Z,14.00
2019-03-28T13:32:22.480Z,10.85
2019-03-28T13:33:35.718Z,13.03
2019-03-28T13:34:48.950Z,12.28
2019-03-28T13:36:02.179Z,12.60
2019-03-28T13:37:15.401Z,12.45
2019-03-28T13:38:28.639Z,12.23
2019-03-28T13:39:41.874Z,12.23
2019-03-28T13:40:55.106Z,10.68
2019-03-28T13:42:08.336Z,12.10
2019-03-28T13:43:21.576Z,11.73
2019-03-28T13:44:34.815Z,12.78
2019-03-28T13:45:48.053Z,11.80
2019-03-28T13:47:01.274Z,14.10
2019-03-28T13:48:14.510Z,13.75
2019-03-28T13:49:27.742Z,10.95
2019-03-28T13:50:40.974Z,13.18
2019-03-28T13:51:54.197Z,13.55
2019-03-28T13:53:07.425Z,11.70
2019-03-28T13:54:23.333Z,15.40
2019-03-28T13:55:36.780Z,14.28
2019-03-28T13:56:50.003Z,12.82
2019-03-28T13:58:03.232Z,11.80
2019-03-28T13:59:16.453Z,14.93
2019-03-28T14:00:30.744Z,12.70
2019-03-28T14:01:43.985Z,12.60
2019-03-28T14:02:58.987Z,14.25
2019-03-28T14:04:13.302Z,12.47
2019-03-28T14:05:26.549Z,14.13
2019-03-28T14:06:39.788Z,10.68
2019-03-28T14:07:53.074Z,12.18
2019-03-28T14:09:06.680Z,11.33
2019-03-28T14:10:21.755Z,13.62
2019-03-28T14:11:34.875Z,12.53
2019-03-28T14:12:48.084Z,11.33
2019-03-28T14:14:02.598Z,12.82
2019-03-28T14:15:15.815Z,12.60
2019-03-28T14:16:29.091Z,14.90
2019-03-28T14:17:42.321Z,11.03
2019-03-28T14:18:55.549Z,12.18
2019-03-28T14:20:08.786Z,11.75
2019-03-28T14:21:22.012Z,11.45
2019-03-28T14:22:35.338Z,10.55
2019-03-28T14:23:48.578Z,13.15
2019-03-28T14:25:01.801Z,12.60
2019-03-28T14:26:15.032Z,11.43
2019-03-28T14:27:28.270Z,12.25
2019-03-28T14:28:41.501Z,10.75
2019-03-28T14:29:54.734Z,9.15
2019-03-28T14:31:07.969Z,11.55
2019-03-28T14:32:21.181Z,9.58
2019-03-28T14:33:34.419Z,11.48
2019-03-28T14:34:47.657Z,12.18
2019-03-28T14:36:00.891Z,11.85
2019-03-28T14:37:16.974Z,9.33
2019-03-28T14:38:29.319Z,10.63
2019-03-28T14:39:42.565Z,10.53
2019-03-28T14:40:58.315Z,12.00
2019-03-28T14:42:10.734Z,10.32
2019-03-28T14:43:23.969Z,10.58
2019-03-28T14:44:37.195Z,9.38
2019-03-28T14:45:50.422Z,10.15
2019-03-28T14:47:03.653Z,9.95
2019-03-28T14:48:16.890Z,14.58
2019-03-28T14:49:30.266Z,10.00
2019-03-28T14:50:43.573Z,8.88
2019-03-28T14:51:56.860Z,10.03
2019-03-28T14:53:10.075Z,8.98
2019-03-28T14:54:23.308Z,8.60
2019-03-28T14:55:36.552Z,9.60
2019-03-28T14:56:49.782Z,10.70
2019-03-28T14:58:03.981Z,7.75
2019-03-28T14:59:17.276Z,8.55
2019-03-28T15:00:41.787Z,7.47
2019-03-28T15:01:55.021Z,7.62
2019-03-28T15:03:08.266Z,7.67
2019-03-28T15:04:21.493Z,9.33
2019-03-28T15:05:34.723Z,12.60
2019-03-28T15:06:47.965Z,12.37
2019-03-28T15:08:01.208Z,7.33
2019-03-28T15:09:14.424Z,8.38
2019-03-28T15:10:27.759Z,6.42
2019-03-28T15:11:41.173Z,6.78
2019-03-28T15:12:54.398Z,5.80
2019-03-28T15:14:07.621Z,6.28
2019-03-28T15:15:20.854Z,6.80
2019-03-28T15:16:34.085Z,6.25
2019-03-28T15:17:48.944Z,5.72
2019-03-28T15:19:02.182Z,6.78
2019-03-28T15:20:15.415Z,5.20
2019-03-28T15:21:28.633Z,5.87
2019-03-28T15:22:41.863Z,6.25
2019-03-28T15:23:55.086Z,5.62
2019-03-28T15:25:08.317Z,7.10
2019-03-28T15:26:21.552Z,4.42
2019-03-28T15:27:35.697Z,7.47
2019-03-28T15:28:48.927Z,5.25
2019-03-28T15:30:02.149Z,6.03
2019-03-28T15:31:15.389Z,9.10
2019-03-28T15:32:28.626Z,5.05
2019-03-28T15:33:43.534Z,6.95
2019-03-28T15:34:56.765Z,5.60
2019-03-28T15:36:11.187Z,7.50
2019-03-28T15:37:24.445Z,6.78
2019-03-28T15:38:37.678Z,6.42
2019-03-28T15:39:50.922Z,8.08
2019-03-28T15:41:04.129Z,5.15
2019-03-28T15:42:17.835Z,6.65
2019-03-28T15:43:31.060Z,7.65
2019-03-28T15:44:44.315Z,6.28
2019-03-28T15:45:58.097Z,7.00
2019-03-28T15:47:11.338Z,6.97
2019-03-28T15:48:24.561Z,10.00
2019-03-28T15:49:37.785Z,6.65